Ride Results

Wandandian (24-06-2018)
Ride distance: 90.0 km Elevator

Outcomes - Wandandian (24-06-2018)
Division No. of Entries Retired / DNE Completed Withdrawn Ineligible V/O Percentage Completed
HW 11 3 8 - - - 100.00%
MW 25 13 11 1 - - 96.00%
LW 12 4 5 - - 3 75.00%
JN 5 4 1 - - - 100.00%
Totals 53 24 25 1 - 3 92.45%
Results - Wandandian (24-06-2018)
No. Rider Horse Place Time Leg Speeds Total
Km/Hr
H/R bpm
Heavyweight
75 Con Bouzianis Conderosa Agamemnon 1 (BC) 6:05:00 16.5, 12.0, 28.5 14.79 40, 50, 52, 52 (Avg:51)
78 Gavin Peacock Eclipse 2 7:47:00 15.6, 12.3, 4.9 11.56 32, 46, 60, 51 (Avg:52)
108 Andrew Bailey Cedar Ridge Farandole 3 7:50:00 11.7, 11.7, 9.8 11.49 34, 41, 48, 43 (Avg:44)
113 Heidi Wade Love In The Mist 4 7:53:00 10.8, 11.6, 13.3 11.42 39, 43, 48, 46 (Avg:45)
81 John Dawson Jon De Le Tison 5 8:02:00 12.3, 10.6, 9.8 11.20 31, 39, 43, 42 (Avg:41)
118 Steven Noble Sbara Teddy 6 8:27:00 11.2, 11.0, 7.8 10.65 36, 40, 41, 48 (Avg:43)
65 Shaun Jones Orion Al Saba 7 8:35:00 11.3, 10.5, 7.9 10.49 34, 41, 46, 48 (Avg:45)
114 Ian Dreghorn Ausden Nile Prins 8 8:47:00 11.4, 9.7, 8.3 10.25 30, 39, 49, 50 (Avg:46)
97 Kirsty Carter Henley Farm Farhan Retired/DNE L2 8:14:00 10.2, 9.2 9.72 28, 42, 56 (Avg:49)
64 Stuart Lymbery Aloha Trumby Retired/DNE L2 8:39:00 9.7, 8.7 9.25 30, 34, 36 (Avg:35)
80 John Howe Ashbend Perazzi Retired/DNE L2 8:48:00 10.5, 7.9 9.09 38, 44, 59 (Avg:51)
Middleweight
79 April Newman Taeaura Shayarnah 1 (BC) 5:50:00 16.5, 14.2, 16.6 15.43 35, 48, 47, 46 (Avg:47)
52 Ian Curtis Blake's Heaven Summer Wind 2 6:01:00 15.6, 14.9, 12.7 14.96 30, 38, 52, 50 (Avg:46)
104 Courtney Anderson Cedar Ridge Jewel 3 6:34:00 11.4, 16.2, 16.2 13.71 36, 44, 46, 42 (Avg:44)
29 Susan Woodward Jon De Le Hazad 4 6:35:00 14.0, 13.8, 11.7 13.67 36, 40, 44, 44 (Avg:42)
53 Monique Echentille Follydown Kadin 5 7:53:00 12.6, 11.7, 7.4 11.42 36, 47, 57, 44 (Avg:49)
55 Dean Walkom Tall Timbers Roberto 5 7:53:00 12.6, 11.7, 7.4 11.42 34, 50, 60, 50 (Avg:53)
39 Thomas Hermann Wasabi 7 7:58:00 12.1, 10.8, 10.1 11.30 34, 42, 44, 46 (Avg:44)
71 Marisa Levitt Scarlet Oaks Faiza 8 8:09:00 11.4, 11.9, 7.5 11.04 33, 31, 35, 45 (Avg:37)
83 Tom Pankhurst Rivergum Drover 9 8:27:00 15.6, 8.6, 7.9 10.65 28, 44, 45, 40 (Avg:43)
107 Jenny Berg Cedar Ridge Cayenne 10 8:31:00 10.3, 11.1, 9.5 10.57 30, 40, 44, 42 (Avg:42)
105 Sharyn Coulston Razorback Inca 10 8:31:00 10.3, 11.1, 9.5 10.57 35, 37, 40, 40 (Avg:39)
76 Diletta Serfilippi Phoenix Fire Retired/DNE L2 6:09:00 12.6, 13.4 13.01 44, 48, 54 (Avg:51)
126 Sorsha Stuart-Rokvic Oso Emelyne Retired/DNE L2 6:13:00 12.9, 12.8 12.87 36, 40, 38 (Avg:39)
67 York Shepheard Currowan Apollo Retired/DNE L2 6:17:00 12.2, 13.2 12.73 30, 42, 52 (Avg:47)
47 Donna Georgievski Kalody Park Amarda Retired/DNE L2 7:03:00 11.4, 11.2 11.35 36, 42, 47 (Avg:44)
85 Katrina Newitt Wybalena Lodge Prince Harry Retired/DNE L2 7:06:00 11.3, 11.2 11.27 36, 54, 60 (Avg:57)
48 Susan Pritchard Velona El Dargo Retired/DNE L2 7:13:00 11.1, 11.0 11.09 30, 44, 44 (Avg:44)
122 Jesse Buchan Starlight Retired/DNE L2 7:27:00 10.6, 10.8 10.74 38, 45, 52 (Avg:48)
50 John Symons Bell Barry Blue Diamond Retired/DNE L2 7:54:00 10.2, 9.9 10.13 30, 41, 42 (Avg:41)
60 Anita Ashby Rosevale Park Rashid Retired/DNE L2 8:09:00 9.6, 9.9 9.82 30, 36, 55 (Avg:45)
77 Tom Bouzianis Conderosa Fiona Retired/DNE L2 8:12:00 9.7, 9.7 9.76 32, 43, 48 (Avg:45)
96 Kayte Barnard Henley Farm Waffar Retired/DNE L2 8:14:00 10.2, 9.2 9.72 29, 36, 47 (Avg:41)
59 Anne Lymbery Aloha Typic Retired/DNE L2 8:39:00 9.7, 8.7 9.25 33, 36, 40 (Avg:38)
44 Bruce Carter Mitanni Hairan Retired/DNE L2 10:03:00 9.2, 6.9 7.96 32, 36, 52 (Avg:44)
127 Amelia Napier Oso Ellazandra Withdrawn L1 0:00:00 - - 33, 40 (Avg:40)
Lightweight
51 Fia Hasko-Stewart Blake's Heaven Venus 1 (BC) 5:14:00 15.6, 14.9, 0.4 17.20 40, 44, 50, 48 (Avg:47)
106 Shannon Fogg Cedar Ridge Proclaimer 2 7:07:00 12.4, 13.7, 9.8 12.65 34, 38, 44, 54 (Avg:45)
54 Sue Todd Shakari Bear 3 7:58:00 12.1, 10.8, 10.1 11.30 34, 41, 50, 48 (Avg:46)
72 Victoria Edmonds Sylan El Aamira 4 8:09:00 11.4, 11.9, 7.5 11.04 30, 41, 42, 52 (Avg:45)
120 Kim Noble Springridge Phoenix 5 8:27:00 11.2, 11.0, 7.8 10.65 33, 40, 48, 48 (Avg:45)
128 Emma Dimech Cabrillas Heir Retired/DNE L2 6:13:00 12.9, 12.8 12.87 32, 40, 45 (Avg:42)
121 Irene Adams Renbury Cedar Retired/DNE L2 7:54:00 10.2, 9.9 10.13 40, 38, 40 (Avg:39)
125 Cheny Collins Valinor Park Sonnet Retired/DNE L2 8:14:00 10.2, 9.2 9.72 31, 38, 44 (Avg:41)
37 Vicki Mathew Penwisk Sharmarra Retired/DNE L2 10:03:00 9.2, 6.9 7.96 27, 37, 40 (Avg:38)
57 Sally Fenner Sierra Lodge Artic Whispers Lame L1 0:00:00 10.5 - 39, 43 (Avg:43)
123 Isabella Circosta Karabil Kaaru Metabolics P/R 0:00:00 - - 37 (Avg:37)
124 Mary Hollingsworth FC Bejing Lame P/R 0:00:00 - - 36
Junior
119 Alison Noble Spelldancer 1 (BC) 8:27:00 11.2, 11.0, 7.8 10.65 36, 47, 50, 52 (Avg:49)
40 Lily Wheeler Kalody Park Karisma Retired/DNE L2 7:08:00 10.8, 11.6 11.21 32, 42, 52 (Avg:47)
56 Jasmine Zimmerman Trian Moir Jasper Retired/DNE L2 7:13:00 10.8, 11.3 11.09 27, 40, 44 (Avg:42)
63 Celia Hodgson Lentara Park Heather Retired/DNE L2 8:09:00 9.6, 9.9 9.82 38, 45, 50 (Avg:47)
35 Levi Robinson Karumba Nazrani Retired/DNE L2 8:39:00 10.1, 8.5 9.25 34, 41, 51 (Avg:46)